sensor_id;sensor_type;location;lat;lon;timestamp;temperature;humidity
2639;DHT22;1329;51.384;7.122;2023-03-12T00:01:18;3.60;99.90
2639;DHT22;1329;51.384;7.122;2023-03-12T00:03:46;3.50;99.90
2639;DHT22;1329;51.384;7.122;2023-03-12T00:06:16;3.60;99.90
2639;DHT22;1329;51.384;7.122;2023-03-12T00:08:44;3.60;99.90
2639;DHT22;1329;51.384;7.122;2023-03-12T00:11:13;3.60;99.90
2639;DHT22;1329;51.384;7.122;2023-03-12T00:13:42;3.60;99.90
2639;DHT22;1329;51.384;7.122;2023-03-12T00:16:12;3.60;99.90
2639;DHT22;1329;51.384;7.122;2023-03-12T00:18:41;3.60;99.90
2639;DHT22;1329;51.384;7.122;2023-03-12T00:21:09;3.60;99.90
2639;DHT22;1329;51.384;7.122;2023-03-12T00:23:36;3.60;99.90
2639;DHT22;1329;51.384;7.122;2023-03-12T00:26:05;3.60;99.90
2639;DHT22;1329;51.384;7.122;2023-03-12T00:28:33;3.70;99.90
2639;DHT22;1329;51.384;7.122;2023-03-12T00:31:01;3.60;99.90
2639;DHT22;1329;51.384;7.122;2023-03-12T00:33:30;3.60;99.90
2639;DHT22;1329;51.384;7.122;2023-03-12T00:35:59;3.60;99.90
2639;DHT22;1329;51.384;7.122;2023-03-12T00:38:26;3.60;99.90
2639;DHT22;1329;51.384;7.122;2023-03-12T00:40:53;3.60;99.90
2639;DHT22;1329;51.384;7.122;2023-03-12T00:43:20;3.60;99.90
2639;DHT22;1329;51.384;7.122;2023-03-12T00:45:47;3.60;99.90
2639;DHT22;1329;51.384;7.122;2023-03-12T00:48:14;3.60;99.90
2639;DHT22;1329;51.384;7.122;2023-03-12T00:50:43;3.70;99.90
2639;DHT22;1329;51.384;7.122;2023-03-12T00:53:10;3.70;99.90
2639;DHT22;1329;51.384;7.122;2023-03-12T00:55:37;3.70;99.90
2639;DHT22;1329;51.384;7.122;2023-03-12T00:58:04;3.70;99.90
2639;DHT22;1329;51.384;7.122;2023-03-12T01:00:31;3.70;99.90
2639;DHT22;1329;51.384;7.122;2023-03-12T01:02:58;3.70;99.90
2639;DHT22;1329;51.384;7.122;2023-03-12T01:05:25;3.70;99.90
2639;DHT22;1329;51.384;7.122;2023-03-12T01:07:54;3.70;99.90
2639;DHT22;1329;51.384;7.122;2023-03-12T01:10:21;3.80;99.90
2639;DHT22;1329;51.384;7.122;2023-03-12T01:12:49;3.80;99.90
2639;DHT22;1329;51.384;7.122;2023-03-12T01:15:16;3.80;99.90
2639;DHT22;1329;51.384;7.122;2023-03-12T01:17:43;3.80;99.90
2639;DHT22;1329;51.384;7.122;2023-03-12T01:20:11;3.80;99.90
2639;DHT22;1329;51.384;7.122;2023-03-12T01:22:39;3.80;99.90
2639;DHT22;1329;51.384;7.122;2023-03-12T01:25:08;3.80;99.90
2639;DHT22;1329;51.384;7.122;2023-03-12T01:27:35;3.80;99.90
2639;DHT22;1329;51.384;7.122;2023-03-12T01:30:03;3.80;99.90
2639;DHT22;1329;51.384;7.122;2023-03-12T01:32:31;3.80;99.90
2639;DHT22;1329;51.384;7.122;2023-03-12T01:34:58;3.80;99.90
2639;DHT22;1329;51.384;7.122;2023-03-12T01:37:26;3.70;99.90
2639;DHT22;1329;51.384;7.122;2023-03-12T01:39:53;3.70;99.90
2639;DHT22;1329;51.384;7.122;2023-03-12T01:42:21;3.70;99.90
2639;DHT22;1329;51.384;7.122;2023-03-12T01:44:50;3.70;99.90
2639;DHT22;1329;51.384;7.122;2023-03-12T01:47:18;3.70;99.90
2639;DHT22;1329;51.384;7.122;2023-03-12T01:49:47;3.70;99.90
2639;DHT22;1329;51.384;7.122;2023-03-12T01:52:19;3.80;99.90
2639;DHT22;1329;51.384;7.122;2023-03-12T01:54:51;3.80;99.90
2639;DHT22;1329;51.384;7.122;2023-03-12T01:57:27;3.80;99.90
2639;DHT22;1329;51.384;7.122;2023-03-12T01:59:59;3.90;99.90
2639;DHT22;1329;51.384;7.122;2023-03-12T02:02:30;3.90;99.90
2639;DHT22;1329;51.384;7.122;2023-03-12T02:05:04;3.90;99.90
2639;DHT22;1329;51.384;7.122;2023-03-12T02:07:34;3.90;99.90
2639;DHT22;1329;51.384;7.122;2023-03-12T02:10:04;4.00;99.90
2639;DHT22;1329;51.384;7.122;2023-03-12T02:12:33;4.00;99.90
2639;DHT22;1329;51.384;7.122;2023-03-12T02:15:01;4.00;99.90
2639;DHT22;1329;51.384;7.122;2023-03-12T02:17:29;4.00;99.90
2639;DHT22;1329;51.384;7.122;2023-03-12T02:20:05;4.00;99.90
2639;DHT22;1329;51.384;7.122;2023-03-12T02:22:38;4.00;99.90
2639;DHT22;1329;51.384;7.122;2023-03-12T02:25:20;4.00;99.90
2639;DHT22;1329;51.384;7.122;2023-03-12T02:27:56;4.10;99.90
2639;DHT22;1329;51.384;7.122;2023-03-12T02:30:24;4.10;99.90
2639;DHT22;1329;51.384;7.122;2023-03-12T02:32:53;4.10;99.90
2639;DHT22;1329;51.384;7.122;2023-03-12T02:35:21;4.10;99.90
2639;DHT22;1329;51.384;7.122;2023-03-12T02:37:49;4.10;99.90
2639;DHT22;1329;51.384;7.122;2023-03-12T02:40:21;4.10;99.90
2639;DHT22;1329;51.384;7.122;2023-03-12T02:42:53;4.10;99.90
2639;DHT22;1329;51.384;7.122;2023-03-12T02:45:24;4.20;99.90
2639;DHT22;1329;51.384;7.122;2023-03-12T02:47:52;4.20;99.90
2639;DHT22;1329;51.384;7.122;2023-03-12T02:50:22;4.20;99.90
2639;DHT22;1329;51.384;7.122;2023-03-12T02:52:49;4.20;99.90
2639;DHT22;1329;51.384;7.122;2023-03-12T02:55:17;4.20;99.90
2639;DHT22;1329;51.384;7.122;2023-03-12T02:57:44;4.20;99.90
2639;DHT22;1329;51.384;7.122;2023-03-12T03:00:12;4.30;99.90
2639;DHT22;1329;51.384;7.122;2023-03-12T03:02:41;4.30;99.90
2639;DHT22;1329;51.384;7.122;2023-03-12T03:05:11;4.30;99.90
2639;DHT22;1329;51.384;7.122;2023-03-12T03:07:38;4.30;99.90
2639;DHT22;1329;51.384;7.122;2023-03-12T03:10:06;4.30;99.90
2639;DHT22;1329;51.384;7.122;2023-03-12T03:12:38;4.30;99.90
2639;DHT22;1329;51.384;7.122;2023-03-12T03:15:07;4.30;99.90
2639;DHT22;1329;51.384;7.122;2023-03-12T03:17:35;4.40;99.90
2639;DHT22;1329;51.384;7.122;2023-03-12T03:20:03;4.40;99.90
2639;DHT22;1329;51.384;7.122;2023-03-12T03:22:38;4.40;99.90
2639;DHT22;1329;51.384;7.122;2023-03-12T03:25:07;4.40;99.90
2639;DHT22;1329;51.384;7.122;2023-03-12T03:27:35;4.40;99.90
2639;DHT22;1329;51.384;7.122;2023-03-12T03:30:09;4.40;99.90
2639;DHT22;1329;51.384;7.122;2023-03-12T03:32:41;4.40;99.90
2639;DHT22;1329;51.384;7.122;2023-03-12T03:35:09;4.50;99.90
2639;DHT22;1329;51.384;7.122;2023-03-12T03:37:36;4.50;99.90
2639;DHT22;1329;51.384;7.122;2023-03-12T03:40:05;4.50;99.90
2639;DHT22;1329;51.384;7.122;2023-03-12T03:42:37;4.50;99.90
2639;DHT22;1329;51.384;7.122;2023-03-12T03:45:10;4.50;99.90
2639;DHT22;1329;51.384;7.122;2023-03-12T03:47:37;4.50;99.90
2639;DHT22;1329;51.384;7.122;2023-03-12T03:50:05;4.50;99.90
2639;DHT22;1329;51.384;7.122;2023-03-12T03:52:33;4.50;99.90
2639;DHT22;1329;51.384;7.122;2023-03-12T03:55:00;4.60;99.90
2639;DHT22;1329;51.384;7.122;2023-03-12T03:57:27;4.60;99.90
2639;DHT22;1329;51.384;7.122;2023-03-12T03:59:55;4.60;99.90
2639;DHT22;1329;51.384;7.122;2023-03-12T04:02:25;4.60;99.90
2639;DHT22;1329;51.384;7.122;2023-03-12T04:04:56;4.60;99.90
2639;DHT22;1329;51.384;7.122;2023-03-12T04:07:27;4.60;99.90
2639;DHT22;1329;51.384;7.122;2023-03-12T04:09:54;4.70;99.90
2639;DHT22;1329;51.384;7.122;2023-03-12T04:12:22;4.60;99.90
2639;DHT22;1329;51.384;7.122;2023-03-12T04:14:50;4.70;99.90
2639;DHT22;1329;51.384;7.122;2023-03-12T04:17:18;4.70;99.90
2639;DHT22;1329;51.384;7.122;2023-03-12T04:19:46;4.70;99.90
2639;DHT22;1329;51.384;7.122;2023-03-12T04:22:13;4.70;99.90
2639;DHT22;1329;51.384;7.122;2023-03-12T04:24:40;4.70;99.90
2639;DHT22;1329;51.384;7.122;2023-03-12T04:27:07;4.70;99.90
2639;DHT22;1329;51.384;7.122;2023-03-12T04:29:34;4.70;99.90
2639;DHT22;1329;51.384;7.122;2023-03-12T04:32:04;4.70;99.90
2639;DHT22;1329;51.384;7.122;2023-03-12T04:34:31;4.70;99.90
2639;DHT22;1329;51.384;7.122;2023-03-12T04:37:02;4.70;99.90
2639;DHT22;1329;51.384;7.122;2023-03-12T04:39:29;4.70;99.90
2639;DHT22;1329;51.384;7.122;2023-03-12T04:41:56;4.70;99.90
2639;DHT22;1329;51.384;7.122;2023-03-12T04:44:23;4.70;99.90
2639;DHT22;1329;51.384;7.122;2023-03-12T04:46:50;4.80;99.90
2639;DHT22;1329;51.384;7.122;2023-03-12T04:49:17;4.80;99.90
2639;DHT22;1329;51.384;7.122;2023-03-12T04:51:44;4.80;99.90
2639;DHT22;1329;51.384;7.122;2023-03-12T04:54:12;4.80;99.90
2639;DHT22;1329;51.384;7.122;2023-03-12T04:56:39;4.80;99.90
2639;DHT22;1329;51.384;7.122;2023-03-12T04:59:06;4.90;99.90
2639;DHT22;1329;51.384;7.122;2023-03-12T05:01:36;4.90;99.90
2639;DHT22;1329;51.384;7.122;2023-03-12T05:04:03;4.90;99.90
2639;DHT22;1329;51.384;7.122;2023-03-12T05:06:31;4.90;99.90
2639;DHT22;1329;51.384;7.122;2023-03-12T05:08:58;4.90;99.90
2639;DHT22;1329;51.384;7.122;2023-03-12T05:11:31;4.90;99.90
2639;DHT22;1329;51.384;7.122;2023-03-12T05:13:58;4.90;99.90
2639;DHT22;1329;51.384;7.122;2023-03-12T05:16:25;4.90;99.90
2639;DHT22;1329;51.384;7.122;2023-03-12T05:18:52;4.90;99.90
2639;DHT22;1329;51.384;7.122;2023-03-12T05:21:19;4.90;99.90
2639;DHT22;1329;51.384;7.122;2023-03-12T05:23:47;4.90;99.90
2639;DHT22;1329;51.384;7.122;2023-03-12T05:26:19;4.90;99.90
2639;DHT22;1329;51.384;7.122;2023-03-12T05:28:49;5.00;99.90
2639;DHT22;1329;51.384;7.122;2023-03-12T05:31:17;5.00;99.90
2639;DHT22;1329;51.384;7.122;2023-03-12T05:33:44;5.00;99.90
2639;DHT22;1329;51.384;7.122;2023-03-12T05:36:13;5.00;99.90
2639;DHT22;1329;51.384;7.122;2023-03-12T05:38:40;5.00;99.90
2639;DHT22;1329;51.384;7.122;2023-03-12T05:41:09;5.00;99.90
2639;DHT22;1329;51.384;7.122;2023-03-12T05:43:44;5.00;99.90
2639;DHT22;1329;51.384;7.122;2023-03-12T05:46:12;5.00;99.90
2639;DHT22;1329;51.384;7.122;2023-03-12T05:48:39;5.00;99.90
2639;DHT22;1329;51.384;7.122;2023-03-12T05:51:07;5.00;99.90
2639;DHT22;1329;51.384;7.122;2023-03-12T05:53:34;5.00;99.90
2639;DHT22;1329;51.384;7.122;2023-03-12T05:56:02;5.00;99.90
2639;DHT22;1329;51.384;7.122;2023-03-12T05:58:30;5.00;99.90
2639;DHT22;1329;51.384;7.122;2023-03-12T06:00:58;5.00;99.90
2639;DHT22;1329;51.384;7.122;2023-03-12T06:03:26;5.00;99.90
2639;DHT22;1329;51.384;7.122;2023-03-12T06:05:53;5.00;99.90
2639;DHT22;1329;51.384;7.122;2023-03-12T06:08:21;5.00;99.90
2639;DHT22;1329;51.384;7.122;2023-03-12T06:10:49;5.10;99.90
2639;DHT22;1329;51.384;7.122;2023-03-12T06:13:18;5.10;99.90
2639;DHT22;1329;51.384;7.122;2023-03-12T06:15:45;5.10;99.90
2639;DHT22;1329;51.384;7.122;2023-03-12T06:18:12;5.10;99.90
2639;DHT22;1329;51.384;7.122;2023-03-12T06:20:41;5.10;99.90
2639;DHT22;1329;51.384;7.122;2023-03-12T06:23:08;5.10;99.90
2639;DHT22;1329;51.384;7.122;2023-03-12T06:25:35;5.10;99.90
2639;DHT22;1329;51.384;7.122;2023-03-12T06:28:03;5.10;99.90
2639;DHT22;1329;51.384;7.122;2023-03-12T06:30:30;5.00;99.90
2639;DHT22;1329;51.384;7.122;2023-03-12T06:33:00;5.00;99.90
2639;DHT22;1329;51.384;7.122;2023-03-12T06:35:28;4.90;99.90
2639;DHT22;1329;51.384;7.122;2023-03-12T06:37:56;5.00;99.90
2639;DHT22;1329;51.384;7.122;2023-03-12T06:40:25;5.00;99.90
2639;DHT22;1329;51.384;7.122;2023-03-12T06:42:52;5.00;99.90
2639;DHT22;1329;51.384;7.122;2023-03-12T06:45:19;4.90;99.90
2639;DHT22;1329;51.384;7.122;2023-03-12T06:47:46;5.00;99.90
2639;DHT22;1329;51.384;7.122;2023-03-12T06:50:14;5.00;99.90
2639;DHT22;1329;51.384;7.122;2023-03-12T06:52:41;5.10;99.90
2639;DHT22;1329;51.384;7.122;2023-03-12T06:55:09;5.10;99.90
2639;DHT22;1329;51.384;7.122;2023-03-12T06:57:38;5.10;99.90
2639;DHT22;1329;51.384;7.122;2023-03-12T07:00:06;5.10;99.90
2639;DHT22;1329;51.384;7.122;2023-03-12T07:02:34;5.10;99.90
2639;DHT22;1329;51.384;7.122;2023-03-12T07:05:04;5.10;99.90
2639;DHT22;1329;51.384;7.122;2023-03-12T07:07:32;5.10;99.90
2639;DHT22;1329;51.384;7.122;2023-03-12T07:09:59;5.10;99.90
2639;DHT22;1329;51.384;7.122;2023-03-12T07:12:28;5.20;99.90
2639;DHT22;1329;51.384;7.122;2023-03-12T07:14:54;5.20;99.90
2639;DHT22;1329;51.384;7.122;2023-03-12T07:17:22;5.20;99.90
2639;DHT22;1329;51.384;7.122;2023-03-12T07:19:49;5.20;99.90
2639;DHT22;1329;51.384;7.122;2023-03-12T07:22:16;5.20;99.90
2639;DHT22;1329;51.384;7.122;2023-03-12T07:24:43;5.20;99.90
2639;DHT22;1329;51.384;7.122;2023-03-12T07:27:12;5.30;99.90
2639;DHT22;1329;51.384;7.122;2023-03-12T07:29:42;5.30;99.90
2639;DHT22;1329;51.384;7.122;2023-03-12T07:32:09;5.30;99.90
2639;DHT22;1329;51.384;7.122;2023-03-12T07:34:37;5.30;99.90
2639;DHT22;1329;51.384;7.122;2023-03-12T07:37:04;5.40;99.90
2639;DHT22;1329;51.384;7.122;2023-03-12T07:39:33;5.40;99.90
2639;DHT22;1329;51.384;7.122;2023-03-12T07:42:02;5.40;99.90
2639;DHT22;1329;51.384;7.122;2023-03-12T07:44:30;5.40;99.90
2639;DHT22;1329;51.384;7.122;2023-03-12T07:46:59;5.50;99.90
2639;DHT22;1329;51.384;7.122;2023-03-12T07:49:26;5.50;99.90
2639;DHT22;1329;51.384;7.122;2023-03-12T07:51:53;5.50;99.90
2639;DHT22;1329;51.384;7.122;2023-03-12T07:54:21;5.50;99.90
2639;DHT22;1329;51.384;7.122;2023-03-12T07:56:56;5.50;99.90
2639;DHT22;1329;51.384;7.122;2023-03-12T07:59:23;5.60;99.90
2639;DHT22;1329;51.384;7.122;2023-03-12T08:01:52;5.60;99.90
2639;DHT22;1329;51.384;7.122;2023-03-12T08:04:23;5.60;99.90
2639;DHT22;1329;51.384;7.122;2023-03-12T08:06:50;5.70;99.90
2639;DHT22;1329;51.384;7.122;2023-03-12T08:09:20;5.70;99.90
2639;DHT22;1329;51.384;7.122;2023-03-12T08:11:47;5.70;99.90
2639;DHT22;1329;51.384;7.122;2023-03-12T08:14:14;5.70;99.90
2639;DHT22;1329;51.384;7.122;2023-03-12T08:16:41;5.70;99.90
2639;DHT22;1329;51.384;7.122;2023-03-12T08:19:09;5.80;99.90
2639;DHT22;1329;51.384;7.122;2023-03-12T08:21:41;5.80;99.90
2639;DHT22;1329;51.384;7.122;2023-03-12T08:24:08;5.80;99.90
2639;DHT22;1329;51.384;7.122;2023-03-12T08:26:35;5.80;99.90
2639;DHT22;1329;51.384;7.122;2023-03-12T08:29:05;5.90;99.90
2639;DHT22;1329;51.384;7.122;2023-03-12T08:31:33;5.90;99.90
2639;DHT22;1329;51.384;7.122;2023-03-12T08:34:00;5.90;99.90
2639;DHT22;1329;51.384;7.122;2023-03-12T08:36:27;6.00;99.90
2639;DHT22;1329;51.384;7.122;2023-03-12T08:38:56;6.00;99.90
2639;DHT22;1329;51.384;7.122;2023-03-12T08:41:23;6.00;99.90
2639;DHT22;1329;51.384;7.122;2023-03-12T08:43:50;6.10;99.90
2639;DHT22;1329;51.384;7.122;2023-03-12T08:46:18;6.10;99.90
2639;DHT22;1329;51.384;7.122;2023-03-12T08:48:47;6.10;99.90
2639;DHT22;1329;51.384;7.122;2023-03-12T08:51:14;6.20;99.90
2639;DHT22;1329;51.384;7.122;2023-03-12T08:53:44;6.20;99.90
2639;DHT22;1329;51.384;7.122;2023-03-12T08:56:15;6.30;99.90
2639;DHT22;1329;51.384;7.122;2023-03-12T08:58:42;6.40;99.90
2639;DHT22;1329;51.384;7.122;2023-03-12T09:01:13;6.40;99.90
2639;DHT22;1329;51.384;7.122;2023-03-12T09:03:41;6.40;99.90
2639;DHT22;1329;51.384;7.122;2023-03-12T09:06:09;6.50;99.90
2639;DHT22;1329;51.384;7.122;2023-03-12T09:08:40;6.50;99.90
2639;DHT22;1329;51.384;7.122;2023-03-12T09:11:08;6.50;99.90
2639;DHT22;1329;51.384;7.122;2023-03-12T09:13:38;6.60;99.90
2639;DHT22;1329;51.384;7.122;2023-03-12T09:16:07;6.60;99.90
2639;DHT22;1329;51.384;7.122;2023-03-12T09:18:34;6.70;99.90
2639;DHT22;1329;51.384;7.122;2023-03-12T09:21:02;6.70;99.90
2639;DHT22;1329;51.384;7.122;2023-03-12T09:23:30;6.80;99.90
2639;DHT22;1329;51.384;7.122;2023-03-12T09:25:57;6.80;99.90
2639;DHT22;1329;51.384;7.122;2023-03-12T09:28:24;6.80;99.90
2639;DHT22;1329;51.384;7.122;2023-03-12T09:30:52;6.80;99.90
2639;DHT22;1329;51.384;7.122;2023-03-12T09:33:19;6.80;99.90
2639;DHT22;1329;51.384;7.122;2023-03-12T09:35:55;6.80;99.90
2639;DHT22;1329;51.384;7.122;2023-03-12T09:38:23;6.80;99.90
2639;DHT22;1329;51.384;7.122;2023-03-12T09:40:52;6.90;99.90
2639;DHT22;1329;51.384;7.122;2023-03-12T09:43:23;6.80;99.90
2639;DHT22;1329;51.384;7.122;2023-03-12T09:45:56;6.80;99.90
2639;DHT22;1329;51.384;7.122;2023-03-12T09:48:27;6.80;99.90
2639;DHT22;1329;51.384;7.122;2023-03-12T09:51:02;6.70;99.90
2639;DHT22;1329;51.384;7.122;2023-03-12T09:53:34;6.70;99.90
2639;DHT22;1329;51.384;7.122;2023-03-12T09:56:10;6.70;99.90
2639;DHT22;1329;51.384;7.122;2023-03-12T09:58:40;6.70;99.90
2639;DHT22;1329;51.384;7.122;2023-03-12T10:01:26;6.70;99.90
2639;DHT22;1329;51.384;7.122;2023-03-12T10:04:22;6.70;99.90
2639;DHT22;1329;51.384;7.122;2023-03-12T10:06:58;6.70;99.90
2639;DHT22;1329;51.384;7.122;2023-03-12T10:09:43;6.70;99.90
2639;DHT22;1329;51.384;7.122;2023-03-12T10:12:23;6.70;99.90
2639;DHT22;1329;51.384;7.122;2023-03-12T10:15:05;6.70;99.90
2639;DHT22;1329;51.384;7.122;2023-03-12T10:17:55;6.70;99.90
2639;DHT22;1329;51.384;7.122;2023-03-12T10:20:50;6.70;99.90
2639;DHT22;1329;51.384;7.122;2023-03-12T10:23:24;6.80;99.90
2639;DHT22;1329;51.384;7.122;2023-03-12T10:26:04;6.80;99.90
2639;DHT22;1329;51.384;7.122;2023-03-12T10:28:36;6.90;99.90
2639;DHT22;1329;51.384;7.122;2023-03-12T10:31:09;6.90;99.90
2639;DHT22;1329;51.384;7.122;2023-03-12T10:33:43;7.00;99.90
2639;DHT22;1329;51.384;7.122;2023-03-12T10:36:18;7.10;99.90
2639;DHT22;1329;51.384;7.122;2023-03-12T10:38:47;7.10;99.90
2639;DHT22;1329;51.384;7.122;2023-03-12T10:41:17;7.20;99.90
2639;DHT22;1329;51.384;7.122;2023-03-12T10:43:48;7.20;99.90
2639;DHT22;1329;51.384;7.122;2023-03-12T10:49:43;7.30;99.90
2639;DHT22;1329;51.384;7.122;2023-03-12T10:52:19;7.40;99.90
2639;DHT22;1329;51.384;7.122;2023-03-12T10:54:49;7.40;99.90
2639;DHT22;1329;51.384;7.122;2023-03-12T10:57:18;7.50;99.90
2639;DHT22;1329;51.384;7.122;2023-03-12T10:59:47;7.50;99.90
2639;DHT22;1329;51.384;7.122;2023-03-12T11:02:35;7.50;99.90
2639;DHT22;1329;51.384;7.122;2023-03-12T11:05:19;7.60;99.90
2639;DHT22;1329;51.384;7.122;2023-03-12T11:07:48;7.60;99.90
2639;DHT22;1329;51.384;7.122;2023-03-12T11:10:22;7.60;99.90
2639;DHT22;1329;51.384;7.122;2023-03-12T11:12:58;7.70;99.90
2639;DHT22;1329;51.384;7.122;2023-03-12T11:15:29;7.70;99.90
2639;DHT22;1329;51.384;7.122;2023-03-12T11:18:24;7.70;99.90
2639;DHT22;1329;51.384;7.122;2023-03-12T11:21:12;7.80;99.90
2639;DHT22;1329;51.384;7.122;2023-03-12T11:23:43;7.80;99.90
2639;DHT22;1329;51.384;7.122;2023-03-12T11:26:17;7.80;99.90
2639;DHT22;1329;51.384;7.122;2023-03-12T11:28:50;7.90;99.90
2639;DHT22;1329;51.384;7.122;2023-03-12T11:31:24;8.00;99.90
2639;DHT22;1329;51.384;7.122;2023-03-12T11:34:00;8.00;99.90
2639;DHT22;1329;51.384;7.122;2023-03-12T11:36:38;8.10;99.90
2639;DHT22;1329;51.384;7.122;2023-03-12T11:39:17;8.10;99.90
2639;DHT22;1329;51.384;7.122;2023-03-12T11:42:04;8.20;99.90
2639;DHT22;1329;51.384;7.122;2023-03-12T11:44:41;8.30;99.90
2639;DHT22;1329;51.384;7.122;2023-03-12T11:47:22;8.40;99.90
2639;DHT22;1329;51.384;7.122;2023-03-12T11:50:08;8.50;99.90
2639;DHT22;1329;51.384;7.122;2023-03-12T11:52:55;8.60;99.90
2639;DHT22;1329;51.384;7.122;2023-03-12T11:55:44;8.70;99.90
2639;DHT22;1329;51.384;7.122;2023-03-12T11:58:33;8.90;99.90
2639;DHT22;1329;51.384;7.122;2023-03-12T12:01:11;9.00;99.90
2639;DHT22;1329;51.384;7.122;2023-03-12T12:04:02;9.20;99.90
2639;DHT22;1329;51.384;7.122;2023-03-12T12:06:56;9.30;99.90
2639;DHT22;1329;51.384;7.122;2023-03-12T12:09:37;9.50;99.90
2639;DHT22;1329;51.384;7.122;2023-03-12T12:12:33;9.60;99.90
2639;DHT22;1329;51.384;7.122;2023-03-12T12:15:16;9.70;99.90
2639;DHT22;1329;51.384;7.122;2023-03-12T12:18:03;9.80;99.90
2639;DHT22;1329;51.384;7.122;2023-03-12T12:20:46;9.90;99.90
2639;DHT22;1329;51.384;7.122;2023-03-12T12:23:23;10.00;99.90
2639;DHT22;1329;51.384;7.122;2023-03-12T12:26:05;10.10;99.90
2639;DHT22;1329;51.384;7.122;2023-03-12T12:28:53;10.10;99.90
2639;DHT22;1329;51.384;7.122;2023-03-12T12:31:34;10.10;99.90
2639;DHT22;1329;51.384;7.122;2023-03-12T12:34:26;10.20;99.90
2639;DHT22;1329;51.384;7.122;2023-03-12T12:37:14;10.20;99.90
2639;DHT22;1329;51.384;7.122;2023-03-12T12:39:51;10.10;99.90
2639;DHT22;1329;51.384;7.122;2023-03-12T12:42:26;10.10;99.90
2639;DHT22;1329;51.384;7.122;2023-03-12T12:44:57;10.10;99.90
2639;DHT22;1329;51.384;7.122;2023-03-12T12:47:33;10.10;99.90
2639;DHT22;1329;51.384;7.122;2023-03-12T12:50:15;10.10;99.90
2639;DHT22;1329;51.384;7.122;2023-03-12T12:52:45;10.00;99.90
2639;DHT22;1329;51.384;7.122;2023-03-12T12:55:21;10.00;99.90
2639;DHT22;1329;51.384;7.122;2023-03-12T12:57:58;10.00;99.90
2639;DHT22;1329;51.384;7.122;2023-03-12T13:00:45;9.90;99.90
2639;DHT22;1329;51.384;7.122;2023-03-12T13:03:16;9.90;99.90
2639;DHT22;1329;51.384;7.122;2023-03-12T13:05:52;9.90;99.90
2639;DHT22;1329;51.384;7.122;2023-03-12T13:11:29;9.90;99.90
2639;DHT22;1329;51.384;7.122;2023-03-12T13:14:20;10.00;99.90
2639;DHT22;1329;51.384;7.122;2023-03-12T13:17:23;10.10;99.90
2639;DHT22;1329;51.384;7.122;2023-03-12T13:19:57;10.30;99.90
2639;DHT22;1329;51.384;7.122;2023-03-12T13:22:34;10.40;99.90
2639;DHT22;1329;51.384;7.122;2023-03-12T13:25:23;10.60;99.90
2639;DHT22;1329;51.384;7.122;2023-03-12T13:27:58;10.70;99.90
2639;DHT22;1329;51.384;7.122;2023-03-12T13:30:48;10.90;99.90
2639;DHT22;1329;51.384;7.122;2023-03-12T13:33:17;11.00;99.90
2639;DHT22;1329;51.384;7.122;2023-03-12T13:36:08;11.10;99.90
2639;DHT22;1329;51.384;7.122;2023-03-12T13:38:39;11.30;99.90
2639;DHT22;1329;51.384;7.122;2023-03-12T13:41:29;11.40;99.90
2639;DHT22;1329;51.384;7.122;2023-03-12T13:43:58;11.50;99.90
2639;DHT22;1329;51.384;7.122;2023-03-12T13:46:38;11.60;99.90
2639;DHT22;1329;51.384;7.122;2023-03-12T13:49:12;11.70;99.90
2639;DHT22;1329;51.384;7.122;2023-03-12T13:52:00;11.70;99.90
2639;DHT22;1329;51.384;7.122;2023-03-12T13:54:36;11.70;99.90
2639;DHT22;1329;51.384;7.122;2023-03-12T13:57:11;11.70;99.90
2639;DHT22;1329;51.384;7.122;2023-03-12T13:59:44;11.70;99.90
2639;DHT22;1329;51.384;7.122;2023-03-12T14:02:21;11.70;99.90
2639;DHT22;1329;51.384;7.122;2023-03-12T14:04:51;11.60;99.90
2639;DHT22;1329;51.384;7.122;2023-03-12T14:07:32;11.60;99.90
2639;DHT22;1329;51.384;7.122;2023-03-12T14:10:29;11.50;99.90
2639;DHT22;1329;51.384;7.122;2023-03-12T14:13:08;11.50;99.90
2639;DHT22;1329;51.384;7.122;2023-03-12T14:15:48;11.40;99.90
2639;DHT22;1329;51.384;7.122;2023-03-12T14:18:22;11.30;99.90
2639;DHT22;1329;51.384;7.122;2023-03-12T14:20:53;11.30;99.90
2639;DHT22;1329;51.384;7.122;2023-03-12T14:23:26;11.30;99.90
2639;DHT22;1329;51.384;7.122;2023-03-12T14:25:58;11.20;99.90
2639;DHT22;1329;51.384;7.122;2023-03-12T14:28:26;11.20;99.90
2639;DHT22;1329;51.384;7.122;2023-03-12T14:30:58;11.20;99.90
2639;DHT22;1329;51.384;7.122;2023-03-12T14:33:33;11.30;99.90
2639;DHT22;1329;51.384;7.122;2023-03-12T14:36:05;11.30;99.90
2639;DHT22;1329;51.384;7.122;2023-03-12T14:38:37;11.30;99.90
2639;DHT22;1329;51.384;7.122;2023-03-12T14:41:08;11.30;99.90
2639;DHT22;1329;51.384;7.122;2023-03-12T14:43:40;11.40;99.90
2639;DHT22;1329;51.384;7.122;2023-03-12T14:46:14;11.40;99.90
2639;DHT22;1329;51.384;7.122;2023-03-12T14:48:49;11.40;99.90
2639;DHT22;1329;51.384;7.122;2023-03-12T14:51:20;11.50;99.90
2639;DHT22;1329;51.384;7.122;2023-03-12T14:53:48;11.50;99.90
2639;DHT22;1329;51.384;7.122;2023-03-12T14:56:23;11.50;99.90
2639;DHT22;1329;51.384;7.122;2023-03-12T14:58:53;11.60;99.90
2639;DHT22;1329;51.384;7.122;2023-03-12T15:01:22;11.60;99.90
2639;DHT22;1329;51.384;7.122;2023-03-12T15:03:56;11.70;99.90
2639;DHT22;1329;51.384;7.122;2023-03-12T15:06:29;11.70;99.90
2639;DHT22;1329;51.384;7.122;2023-03-12T15:08:59;11.80;99.90
2639;DHT22;1329;51.384;7.122;2023-03-12T15:11:30;11.80;99.90
2639;DHT22;1329;51.384;7.122;2023-03-12T15:14:01;11.90;99.90
2639;DHT22;1329;51.384;7.122;2023-03-12T15:16:30;11.90;99.90
2639;DHT22;1329;51.384;7.122;2023-03-12T15:18:59;11.90;99.90
2639;DHT22;1329;51.384;7.122;2023-03-12T15:21:27;11.90;99.90
2639;DHT22;1329;51.384;7.122;2023-03-12T15:23:54;12.00;99.90
2639;DHT22;1329;51.384;7.122;2023-03-12T15:26:29;11.90;99.90
2639;DHT22;1329;51.384;7.122;2023-03-12T15:29:00;12.00;99.90
2639;DHT22;1329;51.384;7.122;2023-03-12T15:31:40;12.00;99.90
2639;DHT22;1329;51.384;7.122;2023-03-12T15:34:13;11.90;99.90
2639;DHT22;1329;51.384;7.122;2023-03-12T15:36:53;11.90;99.90
2639;DHT22;1329;51.384;7.122;2023-03-12T15:39:24;11.90;99.90
2639;DHT22;1329;51.384;7.122;2023-03-12T15:41:53;11.90;99.90
2639;DHT22;1329;51.384;7.122;2023-03-12T15:44:22;11.90;99.90
2639;DHT22;1329;51.384;7.122;2023-03-12T15:46:51;11.90;99.90
2639;DHT22;1329;51.384;7.122;2023-03-12T15:49:24;12.00;99.90
2639;DHT22;1329;51.384;7.122;2023-03-12T15:52:02;11.90;99.90
2639;DHT22;1329;51.384;7.122;2023-03-12T15:54:32;11.90;99.90
2639;DHT22;1329;51.384;7.122;2023-03-12T15:57:20;11.90;99.90
2639;DHT22;1329;51.384;7.122;2023-03-12T16:00:15;12.00;99.90
2639;DHT22;1329;51.384;7.122;2023-03-12T16:02:53;12.00;99.90
2639;DHT22;1329;51.384;7.122;2023-03-12T16:05:26;11.90;99.90
2639;DHT22;1329;51.384;7.122;2023-03-12T16:07:55;11.90;99.90
2639;DHT22;1329;51.384;7.122;2023-03-12T16:10:24;11.90;99.90
2639;DHT22;1329;51.384;7.122;2023-03-12T16:12:58;11.90;99.90
2639;DHT22;1329;51.384;7.122;2023-03-12T16:15:30;11.90;99.90
2639;DHT22;1329;51.384;7.122;2023-03-12T16:17:58;11.90;99.90
2639;DHT22;1329;51.384;7.122;2023-03-12T16:20:27;11.90;99.90
2639;DHT22;1329;51.384;7.122;2023-03-12T16:22:54;11.90;99.90
2639;DHT22;1329;51.384;7.122;2023-03-12T16:25:22;11.90;99.90
2639;DHT22;1329;51.384;7.122;2023-03-12T16:27:51;11.90;99.90
2639;DHT22;1329;51.384;7.122;2023-03-12T16:30:24;12.00;99.90
2639;DHT22;1329;51.384;7.122;2023-03-12T16:32:52;11.90;99.90
2639;DHT22;1329;51.384;7.122;2023-03-12T16:35:20;11.90;99.90
2639;DHT22;1329;51.384;7.122;2023-03-12T16:37:49;11.90;99.90
2639;DHT22;1329;51.384;7.122;2023-03-12T16:40:16;11.90;99.90
2639;DHT22;1329;51.384;7.122;2023-03-12T16:46:12;11.90;99.90
2639;DHT22;1329;51.384;7.122;2023-03-12T16:48:43;11.90;99.90
2639;DHT22;1329;51.384;7.122;2023-03-12T16:51:13;11.90;99.90
2639;DHT22;1329;51.384;7.122;2023-03-12T16:53:42;11.90;99.90